Time;durP1;ratioP1;P1;durP2;ratioP2;P2;SDS_P1;SDS_P2;PMS_P1;PMS_P2;Temp;Humidity;BMP_temperature;BMP_pressure;BME280_temperature;BME280_humidity;BME280_pressure;Samples;Min_cycle;Max_cycle;Signal;HPM_P1;HPM_P2
2022/03/25 00:01:26;;;;;;;50.50;23.75;;;;;;;0.51;75.45;99794.13;4190011;28;20434;-71
2022/03/25 00:03:26;;;;;;;42.88;22.95;;;;;;;0.49;74.63;99801.75;4192839;28;20083;-71
2022/03/25 00:05:27;;;;;;;50.55;23.48;;;;;;;0.50;74.40;99797.97;4192183;28;20052;-71
2022/03/25 00:07:27;;;;;;;45.47;23.35;;;;;;;0.43;74.72;99797.44;4190938;28;20641;-71
2022/03/25 00:09:28;;;;;;;42.58;20.73;;;;;;;0.42;75.58;99795.81;4188505;28;20072;-71
2022/03/25 00:11:28;;;;;;;43.80;22.38;;;;;;;0.37;76.19;99782.22;4191331;28;20487;-71
2022/03/25 00:13:28;;;;;;;44.63;22.67;;;;;;;0.35;75.88;99787.13;4187528;28;20047;-71
2022/03/25 00:15:29;;;;;;;45.63;22.10;;;;;;;0.40;74.71;99778.94;4189013;28;20051;-71
2022/03/25 00:17:29;;;;;;;41.85;21.48;;;;;;;0.54;74.21;99799.03;4189389;28;20037;-71
2022/03/25 00:19:29;;;;;;;42.97;22.20;;;;;;;0.54;74.04;99793.56;4190737;28;20051;-71
2022/03/25 00:21:30;;;;;;;42.72;21.63;;;;;;;0.54;74.07;99785.41;4189920;28;20197;-71
2022/03/25 00:23:30;;;;;;;41.67;21.77;;;;;;;0.50;74.28;99793.31;4188333;28;20151;-71
2022/03/25 00:25:30;;;;;;;40.08;20.17;;;;;;;0.51;73.69;99794.13;4194367;28;20156;-71
2022/03/25 00:27:35;;;;;;;45.58;22.58;;;;;;;0.47;73.24;99788.41;4189441;28;20486;-71
2022/03/25 00:29:36;;;;;;;42.90;22.90;;;;;;;0.44;73.04;99796.34;4192636;28;20056;-71
2022/03/25 00:31:36;;;;;;;43.55;22.25;;;;;;;0.31;74.58;99778.69;4191812;28;20066;-71
2022/03/25 00:33:37;;;;;;;42.72;22.42;;;;;;;0.21;76.09;99785.00;4193760;28;20123;-71
2022/03/25 00:35:38;;;;;;;46.92;22.85;;;;;;;0.16;75.18;99785.00;4190418;28;20074;-70
2022/03/25 00:37:38;;;;;;;44.65;22.67;;;;;;;0.19;74.04;99779.03;4191561;28;20184;-71
2022/03/25 00:39:38;;;;;;;44.42;22.50;;;;;;;0.15;75.06;99780.66;4192376;28;20056;-71
2022/03/25 00:41:38;;;;;;;38.72;20.05;;;;;;;0.08;75.54;99779.31;4190584;28;20412;-71
2022/03/25 00:43:42;;;;;;;43.67;21.65;;;;;;;0.03;75.24;99782.88;4188167;28;20056;-71
2022/03/25 00:45:43;;;;;;;39.80;20.25;;;;;;;0.04;75.59;99786.41;4187407;28;20033;-71
2022/03/25 00:47:43;;;;;;;38.38;20.75;;;;;;;0.07;75.39;99783.13;4185919;28;20551;-71
2022/03/25 00:49:43;;;;;;;44.35;22.90;;;;;;;0.01;75.97;99781.53;4188095;28;20479;-71
2022/03/25 00:51:44;;;;;;;41.05;20.77;;;;;;;-0.05;76.50;99780.72;4188317;28;20677;-71
2022/03/25 00:53:45;;;;;;;46.88;22.63;;;;;;;-0.12;77.40;99777.47;4187123;28;20859;-71
2022/03/25 00:55:46;;;;;;;45.53;21.15;;;;;;;-0.20;78.27;99776.13;4188754;28;20051;-71
2022/03/25 00:57:46;;;;;;;42.60;21.95;;;;;;;-0.27;78.29;99778.31;4185749;28;20664;-71
2022/03/25 00:59:46;;;;;;;39.28;22.00;;;;;;;-0.33;78.64;99766.66;4190442;28;20210;-71
2022/03/25 01:01:47;;;;;;;44.65;21.35;;;;;;;-0.34;78.10;99769.63;4187651;28;20224;-71
2022/03/25 01:03:47;;;;;;;41.55;21.73;;;;;;;-0.36;76.95;99769.91;4188959;28;20035;-71
2022/03/25 01:05:49;;;;;;;39.67;20.80;;;;;;;-0.37;77.59;99770.19;4187269;28;20128;-71
2022/03/25 01:07:49;;;;;;;46.95;21.60;;;;;;;-0.41;77.98;99767.22;4185033;28;20041;-71
2022/03/25 01:09:50;;;;;;;40.53;20.50;;;;;;;-0.40;77.35;99773.47;4186082;28;20056;-71
2022/03/25 01:11:50;;;;;;;44.92;21.55;;;;;;;-0.45;77.73;99774.28;4189608;28;20037;-71
2022/03/25 01:13:51;;;;;;;44.85;21.92;;;;;;;-0.49;78.88;99780.56;4188052;28;20093;-71
2022/03/25 01:15:51;;;;;;;40.95;22.27;;;;;;;-0.48;79.99;99772.13;4184970;28;20033;-71
2022/03/25 01:17:52;;;;;;;38.72;20.75;;;;;;;-0.53;80.07;99771.31;4191047;28;20048;-71
2022/03/25 01:19:52;;;;;;;46.08;21.58;;;;;;;-0.54;81.09;99777.84;4185773;28;20040;-71
2022/03/25 01:21:56;;;;;;;45.03;22.95;;;;;;;-0.60;81.59;99769.66;4186346;28;21147;-71
2022/03/25 01:23:57;;;;;;;47.47;22.50;;;;;;;-0.65;81.78;99779.75;4185392;28;20076;-71
2022/03/25 01:25:58;;;;;;;43.65;21.00;;;;;;;-0.67;82.68;99777.28;4188130;28;20722;-71
2022/03/25 01:27:58;;;;;;;44.67;22.15;;;;;;;-0.67;82.65;99771.03;4185915;28;20043;-71
2022/03/25 01:29:59;;;;;;;44.28;21.65;;;;;;;-0.74;82.99;99781.38;4187085;28;20135;-72
2022/03/25 01:32:01;;;;;;;41.28;19.98;;;;;;;-0.81;82.50;99773.50;4189291;28;20108;-71
2022/03/25 01:34:02;;;;;;;41.95;22.80;;;;;;;-0.79;82.45;99775.94;4190203;28;20033;-72
2022/03/25 01:36:03;;;;;;;40.67;20.70;;;;;;;-0.76;80.55;99768.03;4185452;28;20051;-71
2022/03/25 01:38:04;;;;;;;39.22;20.35;;;;;;;-0.71;79.19;99762.63;4187395;28;20028;-71
2022/03/25 01:40:09;;;;;;;40.33;20.67;;;;;;;-0.67;79.91;99769.13;4191269;28;20314;-71
2022/03/25 01:42:11;;;;;;;38.75;21.13;;;;;;;-0.69;79.16;99760.44;4190365;28;20035;-71
2022/03/25 01:44:11;;;;;;;42.13;20.88;;;;;;;-0.71;79.41;99757.19;4189993;28;20032;-71
2022/03/25 01:46:12;;;;;;;39.67;21.38;;;;;;;-0.68;77.86;99756.63;4189891;28;20817;-71
2022/03/25 01:48:14;;;;;;;42.33;19.70;;;;;;;-0.61;77.08;99756.34;4190851;28;20494;-71
2022/03/25 01:50:20;;;;;;;43.78;19.80;;;;;;;-0.60;77.00;99749.81;4189461;28;20028;-71
2022/03/25 01:52:20;;;;;;;38.83;21.20;;;;;;;-0.59;77.02;99760.41;4189989;28;20078;-71
2022/03/25 01:54:25;;;;;;;41.53;21.00;;;;;;;-0.65;77.91;99753.38;4189529;28;20056;-71
2022/03/25 01:56:25;;;;;;;47.00;21.73;;;;;;;-0.76;78.50;99759.06;4192828;28;20075;-71
2022/03/25 01:58:30;;;;;;;43.22;20.75;;;;;;;-0.83;79.62;99758.53;4190254;28;20037;-71
2022/03/25 02:00:32;;;;;;;40.40;19.88;;;;;;;-0.90;79.12;99753.41;4189294;28;20043;-71
2022/03/25 02:02:32;;;;;;;44.35;21.17;;;;;;;-0.95;78.88;99754.19;4190376;28;20415;-71
2022/03/25 02:04:34;;;;;;;38.13;20.20;;;;;;;-0.95;78.47;99751.47;4189564;28;20044;-71
2022/03/25 02:06:34;;;;;;;46.47;21.02;;;;;;;-1.04;79.31;99750.38;4187678;28;20037;-71
2022/03/25 02:08:35;;;;;;;40.95;20.27;;;;;;;-1.08;80.60;99751.19;4192179;28;20368;-71
2022/03/25 02:10:37;;;;;;;36.80;19.88;;;;;;;-1.15;80.70;99751.47;4190278;28;20040;-71
2022/03/25 02:12:38;;;;;;;41.50;20.90;;;;;;;-1.10;79.31;99745.22;4190532;28;20044;-71
2022/03/25 02:14:39;;;;;;;39.63;19.77;;;;;;;-1.05;78.41;99743.31;4191097;28;20357;-71
2022/03/25 02:16:42;;;;;;;37.60;20.83;;;;;;;-1.07;78.92;99744.69;4189801;28;20095;-71
2022/03/25 02:18:42;;;;;;;41.53;20.02;;;;;;;-1.06;78.68;99743.59;4188761;28;20044;-71
2022/03/25 02:20:43;;;;;;;41.17;20.75;;;;;;;-1.05;78.32;99740.63;4192218;28;20111;-71
2022/03/25 02:22:44;;;;;;;44.00;20.55;;;;;;;-1.08;78.94;99740.31;4192571;28;20039;-71
2022/03/25 02:24:44;;;;;;;40.47;21.23;;;;;;;-1.08;79.00;99743.03;4189950;28;20032;-71
2022/03/25 02:26:44;;;;;;;37.33;19.20;;;;;;;-1.04;77.95;99746.84;4187398;28;20500;-71
2022/03/25 02:28:45;;;;;;;40.72;21.40;;;;;;;-1.03;77.69;99735.72;4191875;28;20811;-71
2022/03/25 02:30:45;;;;;;;39.83;20.70;;;;;;;-1.02;77.78;99736.53;4188063;28;20140;-71
2022/03/25 02:32:46;;;;;;;42.67;21.98;;;;;;;-1.09;78.13;99742.22;4188740;28;20472;-71
2022/03/25 02:34:46;;;;;;;39.72;19.65;;;;;;;-1.11;78.42;99738.97;4189142;28;20048;-71
2022/03/25 02:36:47;;;;;;;42.10;20.83;;;;;;;-1.09;78.57;99741.41;4193643;28;20040;-71
2022/03/25 02:38:47;;;;;;;44.42;20.92;;;;;;;-1.05;77.32;99737.09;4197152;28;20036;-71
2022/03/25 02:40:48;;;;;;;35.60;19.00;;;;;;;-1.00;76.54;99743.31;4196483;28;20040;-71
2022/03/25 02:42:48;;;;;;;39.03;20.45;;;;;;;-1.04;78.22;99742.25;4195714;28;20036;-71
2022/03/25 02:44:49;;;;;;;42.33;21.95;;;;;;;-0.99;77.88;99742.25;4189760;28;20056;-71
2022/03/25 02:46:49;;;;;;;39.53;19.35;;;;;;;-0.95;76.50;99746.03;4194396;28;20053;-71
2022/03/25 02:48:50;;;;;;;45.75;21.50;;;;;;;-0.92;76.85;99744.66;4196757;28;20346;-71
2022/03/25 02:50:50;;;;;;;41.65;20.65;;;;;;;-0.89;76.19;99755.84;4194664;28;20040;-71
2022/03/25 02:52:50;;;;;;;41.35;20.70;;;;;;;-0.89;76.10;99755.03;4194144;28;20094;-71
2022/03/25 02:54:51;;;;;;;41.50;20.75;;;;;;;-0.89;76.36;99752.31;4193586;28;20675;-71
2022/03/25 02:56:51;;;;;;;40.13;21.05;;;;;;;-0.94;77.42;99752.28;4194011;28;20511;-71
2022/03/25 02:58:52;;;;;;;47.25;23.35;;;;;;;-1.00;78.40;99756.09;4196527;28;20051;-71
2022/03/25 03:00:52;;;;;;;52.70;23.20;;;;;;;-1.15;78.82;99746.84;4195465;28;20032;-71
2022/03/25 03:02:53;;;;;;;40.67;20.58;;;;;;;-1.26;79.89;99756.06;4193909;28;20060;-71
2022/03/25 03:04:54;;;;;;;46.15;21.40;;;;;;;-1.33;80.09;99762.81;4195476;28;20555;-71
2022/03/25 03:06:54;;;;;;;40.33;21.67;;;;;;;-1.38;80.09;99760.13;4193254;28;20064;-71
2022/03/25 03:08:56;;;;;;;46.35;21.55;;;;;;;-1.44;80.25;99753.84;4191039;28;20059;-71
2022/03/25 03:10:56;;;;;;;46.17;23.05;;;;;;;-1.53;81.57;99750.84;4196922;28;20697;-71
2022/03/25 03:12:58;;;;;;;47.70;23.90;;;;;;;-1.59;82.81;99751.91;4195573;28;20454;-71
2022/03/25 03:15:00;;;;;;;46.20;23.50;;;;;;;-1.63;84.03;99752.72;4191897;28;20383;-71
2022/03/25 03:17:01;;;;;;;44.08;22.75;;;;;;;-1.69;84.58;99768.16;4192149;28;20040;-71
2022/03/25 03:19:01;;;;;;;45.78;21.38;;;;;;;-1.73;84.89;99762.47;4199661;28;20054;-71
2022/03/25 03:21:01;;;;;;;40.50;21.20;;;;;;;-1.73;85.73;99778.75;4195204;28;20043;-71
2022/03/25 03:23:02;;;;;;;44.45;22.63;;;;;;;-1.76;84.73;99768.41;4196053;28;20433;-71
2022/03/25 03:25:03;;;;;;;45.42;21.27;;;;;;;-1.70;82.66;99767.34;4194131;28;20060;-71
2022/03/25 03:27:03;;;;;;;43.58;21.77;;;;;;;-1.70;81.10;99767.34;4195611;28;20036;-71
2022/03/25 03:29:04;;;;;;;41.55;20.30;;;;;;;-1.72;81.80;99768.72;4194702;28;20325;-71
2022/03/25 03:31:04;;;;;;;43.35;19.88;;;;;;;-1.71;81.17;99775.75;4194299;28;20550;-71
2022/03/25 03:33:05;;;;;;;48.83;22.83;;;;;;;-1.72;80.34;99757.84;4199955;28;20103;-70
2022/03/25 03:35:06;;;;;;;42.55;21.35;;;;;;;-1.73;80.45;99769.78;4194961;28;20515;-70
2022/03/25 03:37:07;;;;;;;43.80;20.88;;;;;;;-1.74;80.90;99781.69;4188826;28;20055;-70
2022/03/25 03:39:07;;;;;;;43.97;21.90;;;;;;;-1.77;82.08;99777.63;4194516;28;20326;-71
2022/03/25 03:41:07;;;;;;;41.38;21.63;;;;;;;-1.82;81.76;99782.22;4195642;28;20048;-71
2022/03/25 03:43:08;;;;;;;46.50;21.63;;;;;;;-1.90;82.17;99772.72;4191439;28;20047;-71
2022/03/25 03:45:08;;;;;;;52.88;22.50;;;;;;;-1.94;82.69;99778.91;4192374;28;20040;-71
2022/03/25 03:47:10;;;;;;;40.95;21.33;;;;;;;-1.98;82.01;99776.75;4194478;28;20099;-71
2022/03/25 03:49:11;;;;;;;40.45;20.65;;;;;;;-2.03;82.46;99775.91;4194430;28;20045;-71
2022/03/25 03:51:11;;;;;;;45.85;20.88;;;;;;;-2.06;82.97;99769.09;4195533;28;20058;-71
2022/03/25 03:53:11;;;;;;;48.42;22.83;;;;;;;-1.99;80.96;99766.13;4198983;28;20548;-71
2022/03/25 03:55:12;;;;;;;39.72;20.48;;;;;;;-1.94;80.38;99768.06;4195323;28;20043;-71
2022/03/25 03:57:13;;;;;;;40.65;21.05;;;;;;;-1.94;81.01;99768.06;4194124;28;20048;-71
2022/03/25 03:59:13;;;;;;;52.50;22.80;;;;;;;-1.97;81.85;99780.28;4191848;28;20342;-71
2022/03/25 04:01:13;;;;;;;45.53;23.10;;;;;;;-2.05;82.23;99778.06;4194906;28;20151;-71
2022/03/25 04:03:14;;;;;;;44.17;21.52;;;;;;;-2.12;83.03;99780.19;4194438;28;20140;-71
2022/03/25 04:05:14;;;;;;;45.83;21.83;;;;;;;-2.16;83.56;99784.50;4194967;28;20036;-71
2022/03/25 04:07:15;;;;;;;45.72;21.38;;;;;;;-2.19;83.02;99779.59;4196374;28;20051;-71
2022/03/25 04:09:15;;;;;;;48.30;22.30;;;;;;;-2.21;82.76;99782.59;4194545;28;20481;-71
2022/03/25 04:11:15;;;;;;;42.72;20.00;;;;;;;-2.29;83.57;99778.47;4194034;28;20073;-71
2022/03/25 04:13:16;;;;;;;45.95;21.35;;;;;;;-2.33;84.31;99790.91;4192217;28;20079;-71
2022/03/25 04:15:16;;;;;;;48.30;21.70;;;;;;;-2.38;84.69;99785.47;4197527;28;20128;-71
2022/03/25 04:17:19;;;;;;;42.42;22.08;;;;;;;-2.37;83.99;99784.38;4197276;28;20083;-71
2022/03/25 04:19:20;;;;;;;50.60;22.55;;;;;;;-2.36;83.49;99796.84;4191434;28;20496;-71
2022/03/25 04:21:20;;;;;;;53.40;24.30;;;;;;;-2.39;83.70;99791.16;4195264;28;20161;-71
2022/03/25 04:23:20;;;;;;;46.72;23.17;;;;;;;-2.44;84.35;99794.63;4192596;28;20125;-71
2022/03/25 04:25:20;;;;;;;53.88;23.33;;;;;;;-2.49;85.00;99794.56;4194172;28;20149;-71
2022/03/25 04:27:21;;;;;;;46.55;22.63;;;;;;;-2.48;84.75;99789.97;4188067;28;20350;-71
2022/03/25 04:29:22;;;;;;;46.13;21.92;;;;;;;-2.51;84.39;99794.03;4195494;28;20032;-71
2022/03/25 04:31:22;;;;;;;57.83;25.02;;;;;;;-2.48;83.33;99796.25;4190971;28;20037;-71
2022/03/25 04:33:22;;;;;;;53.47;24.08;;;;;;;-2.50;84.56;99794.84;4188792;28;20041;-71
2022/03/25 04:35:24;;;;;;;49.20;22.83;;;;;;;-2.51;84.95;99793.22;4195786;28;20522;-71
2022/03/25 04:37:24;;;;;;;46.60;23.73;;;;;;;-2.49;84.73;99788.34;4197469;28;20058;-71
2022/03/25 04:39:24;;;;;;;50.03;24.38;;;;;;;-2.44;83.73;99791.09;4193761;28;20423;-71
2022/03/25 04:41:25;;;;;;;55.20;25.15;;;;;;;-2.43;82.73;99798.16;4188357;28;20040;-71
2022/03/25 04:43:25;;;;;;;50.13;24.20;;;;;;;-2.47;83.86;99794.34;4194341;28;20079;-71
2022/03/25 04:45:27;;;;;;;50.60;24.00;;;;;;;-2.45;83.31;99806.56;4198229;28;20641;-71
2022/03/25 04:47:27;;;;;;;65.22;30.42;;;;;;;-2.42;83.53;99806.00;4189670;28;20048;-71
2022/03/25 04:49:28;;;;;;;77.45;33.00;;;;;;;-2.44;83.16;99805.47;4193395;28;20083;-71
2022/03/25 04:51:28;;;;;;;77.93;33.20;;;;;;;-2.47;84.28;99816.84;4193824;28;20082;-71
2022/03/25 04:53:29;;;;;;;63.25;28.90;;;;;;;-2.51;83.64;99801.34;4192333;28;20826;-71
2022/03/25 04:55:29;;;;;;;59.03;26.70;;;;;;;-2.55;83.53;99807.28;4194345;28;20361;-71
2022/03/25 04:57:29;;;;;;;55.72;26.13;;;;;;;-2.59;83.70;99803.47;4194314;28;20045;-71
2022/03/25 04:59:30;;;;;;;54.85;24.67;;;;;;;-2.60;83.75;99807.25;4197113;28;20407;-71
2022/03/25 05:01:30;;;;;;;56.35;23.85;;;;;;;-2.62;84.38;99814.81;4193849;28;20287;-71
2022/03/25 05:03:30;;;;;;;57.47;25.42;;;;;;;-2.62;83.56;99808.59;4193440;28;20087;-71
2022/03/25 05:05:32;;;;;;;58.63;25.80;;;;;;;-2.64;83.77;99821.59;4195936;28;20123;-71
2022/03/25 05:07:32;;;;;;;47.53;23.00;;;;;;;-2.68;83.85;99818.56;4193582;28;20052;-71
2022/03/25 05:09:33;;;;;;;52.35;24.20;;;;;;;-2.60;82.99;99819.97;4193196;28;20063;-71
2022/03/25 05:11:33;;;;;;;49.75;23.35;;;;;;;-2.56;82.66;99823.81;4196374;28;20036;-71
2022/03/25 05:13:34;;;;;;;48.63;22.77;;;;;;;-2.55;82.10;99817.31;4197430;28;20044;-71
2022/03/25 05:15:34;;;;;;;48.28;23.73;;;;;;;-2.61;81.95;99819.16;4191529;28;20046;-71
2022/03/25 05:17:41;;;;;;;52.03;23.75;;;;;;;-2.55;81.46;99820.03;4192170;28;20483;-71
2022/03/25 05:19:42;;;;;;;48.72;23.25;;;;;;;-2.49;81.85;99821.69;4196924;28;20451;-71
2022/03/25 05:21:42;;;;;;;50.70;21.80;;;;;;;-2.48;80.30;99825.22;4197962;28;20040;-71
2022/03/25 05:23:42;;;;;;;53.58;24.98;;;;;;;-2.52;82.45;99829.53;4196987;28;20032;-71
2022/03/25 05:25:43;;;;;;;46.25;22.77;;;;;;;-2.55;82.79;99833.59;4191807;28;20058;-71
2022/03/25 05:27:44;;;;;;;51.85;24.17;;;;;;;-2.58;83.20;99825.94;4196945;28;20480;-71
2022/03/25 05:29:44;;;;;;;49.15;22.77;;;;;;;-2.54;82.15;99829.78;4193347;28;20079;-71
2022/03/25 05:31:45;;;;;;;49.25;22.80;;;;;;;-2.46;81.72;99829.31;4197568;28;20071;-71
2022/03/25 05:33:45;;;;;;;43.92;22.27;;;;;;;-2.50;81.73;99828.19;4196910;28;20045;-71
2022/03/25 05:35:46;;;;;;;54.17;24.17;;;;;;;-2.52;82.13;99821.41;4196829;28;20100;-71
2022/03/25 05:37:47;;;;;;;50.85;25.27;;;;;;;-2.47;82.66;99837.72;4198666;28;20080;-71
2022/03/25 05:39:47;;;;;;;51.63;22.90;;;;;;;-2.44;80.85;99831.75;4199820;28;20044;-71
2022/03/25 05:41:47;;;;;;;49.90;23.27;;;;;;;-2.46;81.05;99829.31;4194056;28;20055;-71
2022/03/25 05:43:47;;;;;;;52.40;24.52;;;;;;;-2.44;81.78;99834.47;4191872;28;20051;-71
2022/03/25 05:45:48;;;;;;;50.13;24.25;;;;;;;-2.43;81.23;99836.09;4196372;28;20119;-71
2022/03/25 05:47:49;;;;;;;45.10;21.85;;;;;;;-2.38;81.00;99842.38;4197539;28;20484;-71
2022/03/25 05:49:49;;;;;;;52.80;24.63;;;;;;;-2.39;81.64;99842.66;4194605;28;20399;-71
2022/03/25 05:51:50;;;;;;;48.58;24.15;;;;;;;-2.37;81.60;99835.88;4195869;28;20247;-71
2022/03/25 05:53:50;;;;;;;50.40;24.23;;;;;;;-2.37;82.83;99840.50;4195689;28;20028;-71
2022/03/25 05:55:50;;;;;;;48.97;23.55;;;;;;;-2.35;82.89;99851.88;4129360;28;20620;-71
2022/03/25 05:57:50;;;;;;;53.05;26.67;;;;;;;-2.24;81.57;99852.75;4181117;28;20075;-71
2022/03/25 05:59:51;;;;;;;48.97;23.80;;;;;;;-2.15;80.27;99845.78;4180994;28;20067;-71
2022/03/25 06:01:51;;;;;;;54.13;25.27;;;;;;;-2.05;80.23;99848.56;4179653;28;20044;-71
2022/03/25 06:03:51;;;;;;;47.78;23.60;;;;;;;-2.01;81.00;99849.66;4200323;28;20407;-71
2022/03/25 06:05:52;;;;;;;51.85;23.73;;;;;;;-1.99;80.66;99858.34;4195736;28;20933;-71
2022/03/25 06:07:52;;;;;;;51.22;23.50;;;;;;;-1.97;80.83;99861.66;4196070;28;20391;-71
2022/03/25 06:09:53;;;;;;;47.63;23.13;;;;;;;-1.89;79.80;99863.88;4199736;28;20032;-71
2022/03/25 06:11:53;;;;;;;51.22;23.35;;;;;;;-1.84;79.67;99853.03;4192016;28;20063;-71
2022/03/25 06:13:53;;;;;;;45.75;22.05;;;;;;;-1.75;79.71;99854.16;4190272;28;20128;-71
2022/03/25 06:15:55;;;;;;;51.75;23.10;;;;;;;-1.73;79.70;99865.59;4195348;28;20357;-71
2022/03/25 06:17:55;;;;;;;48.15;22.83;;;;;;;-1.66;78.68;99861.78;4196142;28;20445;-71
2022/03/25 06:19:55;;;;;;;62.13;23.88;;;;;;;-1.59;79.04;99859.66;4195535;28;20157;-71
2022/03/25 06:21:56;;;;;;;52.65;25.40;;;;;;;-1.60;79.14;99856.13;4197210;28;20532;-71
2022/03/25 06:23:56;;;;;;;50.42;22.88;;;;;;;-1.54;78.72;99856.97;4194203;28;20482;-71
2022/03/25 06:26:00;;;;;;;52.20;22.98;;;;;;;-1.50;77.69;99863.50;4197488;28;20044;-71
2022/03/25 06:28:04;;;;;;;48.60;23.80;;;;;;;-1.47;78.98;99862.97;4193409;28;20054;-71
2022/03/25 06:30:05;;;;;;;51.20;23.30;;;;;;;-1.48;78.89;99862.16;4192950;28;20132;-71
2022/03/25 06:32:06;;;;;;;46.88;22.92;;;;;;;-1.46;79.75;99860.00;4200091;28;20098;-71
2022/03/25 06:34:06;;;;;;;49.85;22.77;;;;;;;-1.43;79.29;99859.47;4197162;28;20106;-71
2022/03/25 06:36:13;;;;;;;49.40;23.60;;;;;;;-1.42;79.95;99860.28;4191938;28;20066;-71
2022/03/25 06:38:14;;;;;;;55.33;23.77;;;;;;;-1.36;79.62;99869.25;4192314;28;20028;-71
2022/03/25 06:40:15;;;;;;;49.10;23.98;;;;;;;-1.35;80.74;99862.75;4195218;28;20028;-71
2022/03/25 06:42:15;;;;;;;48.05;22.60;;;;;;;-1.30;81.15;99870.91;4192985;28;20344;-71
2022/03/25 06:44:16;;;;;;;48.33;23.83;;;;;;;-1.20;79.19;99873.66;4193875;28;20034;-71
2022/03/25 06:46:18;;;;;;;49.45;24.33;;;;;;;-1.14;78.37;99865.28;4195646;28;20028;-71
2022/03/25 06:48:18;;;;;;;45.15;22.02;;;;;;;-1.08;79.47;99860.66;4193929;28;20464;-71
2022/03/25 06:50:20;;;;;;;49.75;25.20;;;;;;;-1.03;78.98;99863.38;4193652;28;20036;-71
2022/03/25 06:52:21;;;;;;;48.45;23.23;;;;;;;-0.98;78.81;99865.31;4190797;28;20602;-71
2022/03/25 06:54:22;;;;;;;47.42;23.27;;;;;;;-0.92;79.26;99867.75;4193265;28;20051;-71
2022/03/25 06:56:22;;;;;;;46.28;23.33;;;;;;;-0.85;79.23;99867.50;4195136;28;20040;-71
2022/03/25 06:58:23;;;;;;;48.67;23.20;;;;;;;-0.76;78.10;99870.50;4194554;28;20483;-71
2022/03/25 07:00:24;;;;;;;55.55;25.20;;;;;;;-0.68;78.49;99872.69;4189933;28;20058;-71
2022/03/25 07:02:25;;;;;;;46.63;23.13;;;;;;;-0.62;78.45;99874.34;4193469;28;20750;-71
2022/03/25 07:04:25;;;;;;;52.22;23.55;;;;;;;-0.54;78.83;99871.06;4193828;28;20047;-71
2022/03/25 07:06:26;;;;;;;48.30;23.92;;;;;;;-0.48;78.09;99877.34;4193308;28;20048;-71
2022/03/25 07:08:30;;;;;;;52.03;23.45;;;;;;;-0.40;77.33;99871.38;4192264;28;20040;-71
2022/03/25 07:10:30;;;;;;;54.90;23.55;;;;;;;-0.29;77.36;99872.97;4194464;28;20468;-71
2022/03/25 07:12:31;;;;;;;54.25;24.98;;;;;;;-0.22;78.18;99883.59;4197466;28;20519;-71
2022/03/25 07:14:31;;;;;;;51.53;24.15;;;;;;;-0.13;79.10;99882.78;4193027;28;20147;-71
2022/03/25 07:16:32;;;;;;;52.92;24.60;;;;;;;-0.06;79.92;99880.59;4198931;28;20058;-71
2022/03/25 07:18:32;;;;;;;50.85;24.25;;;;;;;-0.01;81.91;99875.13;4194911;28;20212;-71
2022/03/25 07:20:32;;;;;;;50.72;25.48;;;;;;;0.04;82.17;99874.31;4194361;28;20047;-71
2022/03/25 07:22:34;;;;;;;53.45;26.38;;;;;;;0.09;83.50;99873.50;4196312;28;20124;-71
2022/03/25 07:24:34;;;;;;;54.67;25.67;;;;;;;0.17;85.06;99881.09;4193538;28;20896;-71
2022/03/25 07:26:36;;;;;;;62.50;27.70;;;;;;;0.25;86.59;99878.63;4194229;28;20187;-71
2022/03/25 07:28:36;;;;;;;58.17;24.90;;;;;;;0.32;85.85;99883.78;4198182;28;20074;-71
2022/03/25 07:30:38;;;;;;;69.40;29.95;;;;;;;0.38;85.80;99879.94;4193395;28;20380;-71
2022/03/25 07:32:38;;;;;;;66.35;30.00;;;;;;;0.48;86.82;99881.81;4191876;28;20036;-71
2022/03/25 07:34:39;;;;;;;66.65;30.67;;;;;;;0.60;88.19;99884.25;4189232;28;20053;-71
2022/03/25 07:36:40;;;;;;;65.20;28.05;;;;;;;0.67;88.74;99880.13;4188362;28;20052;-71
2022/03/25 07:38:40;;;;;;;53.15;25.90;;;;;;;0.75;86.71;99889.66;4195335;28;20055;-71
2022/03/25 07:40:40;;;;;;;54.75;26.10;;;;;;;0.86;84.40;99884.94;4195695;28;20119;-71
2022/03/25 07:42:42;;;;;;;52.40;25.85;;;;;;;0.95;82.89;99891.44;4193219;28;20043;-71
2022/03/25 07:44:43;;;;;;;55.67;26.70;;;;;;;1.04;83.01;99889.75;4194784;28;20535;-71
2022/03/25 07:46:43;;;;;;;55.90;27.20;;;;;;;1.15;84.00;99894.06;4195979;28;20297;-71
2022/03/25 07:48:44;;;;;;;59.10;27.42;;;;;;;1.29;85.11;99883.34;4197604;28;20044;-71
2022/03/25 07:50:44;;;;;;;59.00;26.50;;;;;;;1.39;85.06;99886.00;4190191;28;20044;-71
2022/03/25 07:52:46;;;;;;;52.45;26.13;;;;;;;1.47;83.92;99882.66;4196661;28;20044;-71
2022/03/25 07:54:46;;;;;;;52.63;27.67;;;;;;;1.58;83.15;99884.25;4197257;28;20071;-71
2022/03/25 07:56:47;;;;;;;53.80;26.65;;;;;;;1.67;81.09;99884.44;4191752;28;20036;-71
2022/03/25 07:58:47;;;;;;;48.72;25.27;;;;;;;1.80;80.68;99896.59;4196524;28;20375;-71
2022/03/25 08:00:49;;;;;;;57.70;27.48;;;;;;;1.91;81.96;99892.72;4194699;28;20128;-71
2022/03/25 08:02:52;;;;;;;61.95;27.55;;;;;;;2.09;83.65;99892.00;4194317;28;20455;-71
2022/03/25 08:04:52;;;;;;;55.78;28.13;;;;;;;2.29;83.82;99901.88;4189642;28;20048;-71
2022/03/25 08:06:53;;;;;;;52.20;25.05;;;;;;;2.41;80.96;99890.59;4194143;28;20052;-71
2022/03/25 08:08:54;;;;;;;54.63;28.17;;;;;;;2.49;80.77;99895.41;4196933;28;20060;-71
2022/03/25 08:10:56;;;;;;;59.25;29.30;;;;;;;2.60;80.36;99896.91;4196516;28;20059;-71
2022/03/25 08:12:56;;;;;;;59.33;28.13;;;;;;;2.69;80.41;99900.63;4193330;28;20388;-71
2022/03/25 08:14:57;;;;;;;60.25;28.00;;;;;;;2.78;79.59;99895.34;4195370;28;20089;-71
2022/03/25 08:16:57;;;;;;;54.45;27.45;;;;;;;2.87;76.76;99895.50;4192014;28;20502;-71
2022/03/25 08:18:57;;;;;;;54.78;28.38;;;;;;;2.98;78.67;99894.25;4196574;28;20041;-71
2022/03/25 08:20:58;;;;;;;55.70;28.33;;;;;;;3.09;79.64;99903.97;4197309;28;20741;-71
2022/03/25 08:22:59;;;;;;;50.92;25.77;;;;;;;3.18;78.18;99893.19;4195778;28;20040;-71
2022/03/25 08:29:37;;;;;;;53.17;27.75;;;;;;;3.64;78.29;99905.09;4195452;28;20361;-71
2022/03/25 08:31:37;;;;;;;57.80;29.35;;;;;;;3.77;77.36;99897.22;4194822;28;20460;-71
2022/03/25 08:33:37;;;;;;;55.05;26.50;;;;;;;3.90;77.05;99904.69;4195300;28;20153;-71
2022/03/25 08:35:39;;;;;;;56.22;28.08;;;;;;;4.02;76.15;99907.75;4193863;28;20207;-71
2022/03/25 08:37:40;;;;;;;59.80;28.70;;;;;;;4.12;75.76;99913.06;4191724;28;20043;-71
2022/03/25 08:39:40;;;;;;;55.67;27.85;;;;;;;4.18;74.88;99903.63;4194339;28;20033;-71
2022/03/25 08:41:41;;;;;;;52.80;27.25;;;;;;;4.32;74.00;99911.09;4193698;28;20404;-71
2022/03/25 08:43:42;;;;;;;52.08;24.35;;;;;;;4.43;72.67;99910.59;4200786;28;20048;-71
2022/03/25 08:45:43;;;;;;;47.72;24.88;;;;;;;4.53;72.08;99912.31;4193163;28;20241;-71
2022/03/25 08:47:44;;;;;;;45.25;21.70;;;;;;;4.63;68.26;99914.84;4193523;28;20101;-71
2022/03/25 08:49:45;;;;;;;42.80;20.15;;;;;;;4.72;66.31;99918.53;4193750;28;20040;-71
2022/03/25 08:51:46;;;;;;;42.13;21.98;;;;;;;4.85;66.51;99919.66;4194064;28;20131;-71
2022/03/25 08:53:46;;;;;;;43.78;21.98;;;;;;;5.06;65.03;99909.91;4194468;28;20550;-71
2022/03/25 08:55:47;;;;;;;45.00;21.73;;;;;;;5.14;65.35;99905.63;4197064;28;20902;-71
2022/03/25 08:57:48;;;;;;;49.50;23.55;;;;;;;5.25;66.23;99903.47;4195249;28;20048;-71
2022/03/25 08:59:49;;;;;;;43.78;21.45;;;;;;;5.42;64.70;99913.78;4193321;28;20131;-71
2022/03/25 09:01:49;;;;;;;47.88;22.58;;;;;;;5.59;64.35;99900.22;4193882;28;20083;-71
2022/03/25 09:03:50;;;;;;;45.97;21.85;;;;;;;5.68;64.90;99905.78;4195398;28;20076;-71
2022/03/25 09:05:50;;;;;;;48.35;23.02;;;;;;;5.87;63.34;99911.88;4195670;28;20041;-71
2022/03/25 09:07:50;;;;;;;53.17;23.30;;;;;;;6.13;62.34;99914.88;4193488;28;20444;-71
2022/03/25 09:09:51;;;;;;;44.78;21.98;;;;;;;6.23;61.86;99908.28;4193549;28;20123;-71
2022/03/25 09:11:51;;;;;;;48.63;22.98;;;;;;;6.32;62.18;99911.91;4193843;28;20070;-71
2022/03/25 09:13:51;;;;;;;49.95;22.75;;;;;;;6.37;61.19;99909.84;4195507;28;20441;-71
2022/03/25 09:15:52;;;;;;;46.55;21.65;;;;;;;6.46;60.78;99907.94;4191339;28;20064;-71
2022/03/25 09:17:52;;;;;;;42.13;21.73;;;;;;;6.60;59.99;99920.78;4190398;28;20538;-71
2022/03/25 09:19:53;;;;;;;45.45;22.55;;;;;;;6.73;60.89;99922.63;4194489;28;20395;-71
2022/03/25 09:21:53;;;;;;;45.08;22.50;;;;;;;6.84;60.39;99917.63;4193679;28;20091;-71